createdAt,value
2018-09-06T00:02:28.880Z,101864.95
2018-09-06T00:04:58.164Z,101857.70
2018-09-06T00:07:27.536Z,101861.65
2018-09-06T00:09:57.017Z,101857.66
2018-09-06T00:12:26.304Z,101860.76
2018-09-06T00:14:55.693Z,101852.86
2018-09-06T00:17:25.646Z,101848.45
2018-09-06T00:19:54.848Z,101854.23
2018-09-06T00:22:24.272Z,101844.55
2018-09-06T00:24:53.650Z,101849.43
2018-09-06T00:27:23.315Z,101856.56
2018-09-06T00:29:52.435Z,101849.88
2018-09-06T00:32:21.777Z,101848.98
2018-09-06T00:34:50.670Z,101848.94
2018-09-06T00:37:19.699Z,101844.88
2018-09-06T00:39:49.002Z,101839.55
2018-09-06T00:42:17.953Z,101839.99
2018-09-06T00:44:47.099Z,101849.34
2018-09-06T00:47:16.374Z,101839.19
2018-09-06T00:49:45.385Z,101837.85
2018-09-06T00:52:14.427Z,101840.47
2018-09-06T00:54:43.559Z,101839.06
2018-09-06T00:57:12.613Z,101835.03
2018-09-06T00:59:41.548Z,101836.48
2018-09-06T01:02:11.056Z,101833.86
2018-09-06T01:04:40.037Z,101833.86
2018-09-06T01:07:09.031Z,101834.22
2018-09-06T01:09:38.330Z,101831.16
2018-09-06T01:12:07.403Z,101834.70
2018-09-06T01:14:36.433Z,101830.35
2018-09-06T01:17:05.966Z,101831.31
2018-09-06T01:19:35.041Z,101829.55
2018-09-06T01:22:04.161Z,101834.06
2018-09-06T01:24:33.430Z,101820.75
2018-09-06T01:27:02.970Z,101825.07
2018-09-06T01:29:32.023Z,101818.38
2018-09-06T01:32:01.301Z,101821.60
2018-09-06T01:34:30.339Z,101823.45
2018-09-06T01:37:00.416Z,101818.98
2018-09-06T01:39:29.741Z,101815.47
2018-09-06T01:41:58.882Z,101818.12
2018-09-06T01:44:27.951Z,101818.09
2018-09-06T01:46:57.285Z,101814.45
2018-09-06T01:49:26.323Z,101816.23
2018-09-06T01:51:55.308Z,101810.11
2018-09-06T01:54:24.770Z,101818.98
2018-09-06T01:56:53.918Z,101807.45
2018-09-06T01:59:23.426Z,101802.64
2018-09-06T02:01:52.400Z,101808.38
2018-09-06T02:04:21.892Z,101808.41
2018-09-06T02:06:51.219Z,101814.09
2018-09-06T02:09:21.358Z,101782.78
2018-09-06T02:11:50.311Z,101800.84
2018-09-06T02:14:19.340Z,101803.13
2018-09-06T02:16:49.248Z,101812.44
2018-09-06T02:19:18.390Z,101803.13
2018-09-06T02:21:47.634Z,101803.17
2018-09-06T02:24:16.877Z,101799.95
2018-09-06T02:26:46.055Z,101805.67
2018-09-06T02:29:15.022Z,101795.15
2018-09-06T02:31:44.208Z,101798.82
2018-09-06T02:34:13.597Z,101803.26
2018-09-06T02:36:42.650Z,101798.83
2018-09-06T02:39:11.925Z,101797.09
2018-09-06T02:41:40.868Z,101803.25
2018-09-06T02:44:11.023Z,101797.05
2018-09-06T02:46:40.185Z,101792.61
2018-09-06T02:49:09.640Z,101789.91
2018-09-06T02:51:38.648Z,101790.84
2018-09-06T02:54:08.091Z,101790.88
2018-09-06T02:56:37.231Z,101792.22
2018-09-06T02:59:06.406Z,101791.77
2018-09-06T03:01:35.792Z,101788.22
2018-09-06T03:04:05.330Z,101787.38
2018-09-06T03:06:34.788Z,101788.63
2018-09-06T03:09:04.886Z,101782.90
2018-09-06T03:11:38.952Z,101779.43
2018-09-06T03:14:09.064Z,101775.00
2018-09-06T03:16:38.119Z,101779.39
2018-09-06T03:19:07.569Z,101773.14
2018-09-06T03:21:36.656Z,101774.92
2018-09-06T03:24:05.932Z,101772.26
2018-09-06T03:26:35.207Z,101773.11
2018-09-06T03:29:04.541Z,101777.54
2018-09-06T03:31:33.690Z,101773.11
2018-09-06T03:34:02.755Z,101771.33
2018-09-06T03:36:32.206Z,101773.09
2018-09-06T03:39:01.256Z,101773.98
2018-09-06T03:41:30.557Z,101777.50
2018-09-06T03:44:00.395Z,101769.55
2018-09-06T03:46:29.552Z,101769.55
2018-09-06T03:48:58.866Z,101773.11
2018-09-06T03:51:28.069Z,101773.11
2018-09-06T03:53:57.750Z,101770.39
2018-09-06T03:56:27.019Z,101769.47
2018-09-06T03:58:56.601Z,101764.15
2018-09-06T04:01:25.947Z,101769.47
2018-09-06T04:03:54.973Z,101762.45
2018-09-06T04:06:24.787Z,101770.45
2018-09-06T04:08:54.214Z,101768.67
2018-09-06T04:11:24.050Z,101764.19
2018-09-06T04:13:53.194Z,101764.14
2018-09-06T04:16:22.610Z,101767.66
2018-09-06T04:18:52.060Z,101766.84
2018-09-06T04:21:21.811Z,101773.55
2018-09-06T04:23:51.368Z,101769.52
2018-09-06T04:26:21.086Z,101773.50
2018-09-06T04:28:51.077Z,101769.47
2018-09-06T04:31:20.459Z,101769.42
2018-09-06T04:33:50.184Z,101766.32
2018-09-06T04:36:19.981Z,101766.33
2018-09-06T04:38:49.296Z,101768.58
2018-09-06T04:41:18.328Z,101772.09
2018-09-06T04:43:47.749Z,101771.20
2018-09-06T04:46:17.026Z,101772.09
2018-09-06T04:48:46.990Z,101771.12
2018-09-06T04:51:16.491Z,101772.00
2018-09-06T04:53:45.763Z,101711.36
2018-09-06T04:56:14.999Z,101776.36
2018-09-06T04:58:44.601Z,101778.12
2018-09-06T05:01:13.934Z,101779.86
2018-09-06T05:03:43.210Z,101785.23
2018-09-06T05:06:12.612Z,101779.91
2018-09-06T05:08:42.470Z,101781.23
2018-09-06T05:11:11.728Z,101779.98
2018-09-06T05:13:41.078Z,101785.39
2018-09-06T05:16:10.213Z,101787.09
2018-09-06T05:18:39.651Z,101782.20
2018-09-06T05:21:09.523Z,101785.23
2018-09-06T05:23:38.860Z,101786.03
2018-09-06T05:26:07.997Z,101781.16
2018-09-06T05:28:37.224Z,101789.45
2018-09-06T05:31:06.464Z,101792.60
2018-09-06T05:33:35.917Z,101793.93
2018-09-06T05:36:05.242Z,101794.87
2018-09-06T05:38:34.551Z,101788.65
2018-09-06T05:41:03.805Z,101796.59
2018-09-06T05:43:33.089Z,101787.72
2018-09-06T05:46:02.332Z,101777.92
2018-09-06T05:48:31.506Z,101784.08
2018-09-06T05:51:00.923Z,101777.79
2018-09-06T05:53:30.475Z,101782.22
2018-09-06T05:55:59.865Z,101779.56
2018-09-06T05:58:29.250Z,101781.30
2018-09-06T06:00:58.297Z,101771.52
2018-09-06T06:03:27.543Z,101773.66
2018-09-06T06:05:57.002Z,101767.00
2018-09-06T06:08:37.005Z,101770.91
2018-09-06T06:11:07.786Z,101771.39
2018-09-06T06:13:37.051Z,101771.39
2018-09-06T06:16:06.422Z,101762.92
2018-09-06T06:18:35.977Z,101770.45
2018-09-06T06:21:05.132Z,101778.44
2018-09-06T06:23:34.467Z,101773.03
2018-09-06T06:26:04.332Z,101775.61
2018-09-06T06:28:34.050Z,101771.95
2018-09-06T06:31:03.427Z,101773.24
2018-09-06T06:33:32.932Z,101761.66
2018-09-06T06:36:01.951Z,101768.70
2018-09-06T06:38:31.323Z,101765.06
2018-09-06T06:41:00.679Z,101756.62
2018-09-06T06:43:29.830Z,101759.28
2018-09-06T06:45:59.306Z,101760.22
2018-09-06T06:48:28.693Z,101753.08
2018-09-06T06:50:57.855Z,101759.14
2018-09-06T06:53:26.925Z,101754.64
2018-09-06T06:55:56.527Z,101751.14
2018-09-06T06:58:25.815Z,101749.37
2018-09-06T07:00:55.045Z,101749.27
2018-09-06T07:03:24.677Z,101752.70
2018-09-06T07:05:53.937Z,101743.23
2018-09-06T07:08:23.192Z,101748.87
2018-09-06T07:10:52.799Z,101739.45
2018-09-06T07:13:22.322Z,101741.66
2018-09-06T07:15:51.502Z,101733.58
2018-09-06T07:18:21.114Z,101734.46
2018-09-06T07:20:50.537Z,101738.02
2018-09-06T07:23:19.805Z,101738.64
2018-09-06T07:25:49.335Z,101738.95
2018-09-06T07:28:18.431Z,101730.23
2018-09-06T07:30:47.772Z,101733.62
2018-09-06T07:33:17.283Z,101734.78
2018-09-06T07:35:46.592Z,101737.75
2018-09-06T07:38:16.218Z,101737.25
2018-09-06T07:40:45.491Z,101734.80
2018-09-06T07:43:14.785Z,101739.11
2018-09-06T07:45:43.880Z,101737.52
2018-09-06T07:48:13.288Z,101730.20
2018-09-06T07:50:42.487Z,101733.95
2018-09-06T07:53:11.689Z,101733.52
2018-09-06T07:55:41.158Z,101739.21
2018-09-06T07:58:10.391Z,101739.59
2018-09-06T08:00:41.357Z,101736.80
2018-09-06T08:03:11.529Z,101738.70
2018-09-06T08:05:41.365Z,101738.76
2018-09-06T08:08:10.668Z,101731.75
2018-09-06T08:10:40.162Z,101728.30
2018-09-06T08:13:09.364Z,101732.08
2018-09-06T08:15:38.925Z,101729.15
2018-09-06T08:18:08.369Z,101726.66
2018-09-06T08:20:37.639Z,101734.91
2018-09-06T08:23:06.801Z,101731.78
2018-09-06T08:25:36.117Z,101722.71
2018-09-06T08:28:05.438Z,101731.63
2018-09-06T08:30:34.867Z,101728.28
2018-09-06T08:33:03.861Z,101714.89
2018-09-06T08:35:32.897Z,101717.47
2018-09-06T08:38:01.945Z,101713.02
2018-09-06T08:40:31.311Z,101705.69
2018-09-06T08:43:00.250Z,101711.86
2018-09-06T08:45:29.853Z,101711.48
2018-09-06T08:47:59.122Z,101712.52
2018-09-06T08:50:28.410Z,101716.67
2018-09-06T08:52:58.047Z,101712.58
2018-09-06T08:55:27.269Z,101715.63
2018-09-06T08:57:56.780Z,101708.20
2018-09-06T09:00:29.186Z,101703.13
2018-09-06T09:02:58.647Z,101705.61
2018-09-06T09:05:27.793Z,101704.23
2018-09-06T09:07:57.128Z,101708.66
2018-09-06T09:10:26.219Z,101713.77
2018-09-06T09:12:55.384Z,101710.48
2018-09-06T09:15:24.975Z,101709.55
2018-09-06T09:17:54.780Z,101712.47
2018-09-06T09:20:24.229Z,101704.37
2018-09-06T09:22:54.596Z,101700.31
2018-09-06T09:25:24.387Z,101694.63
2018-09-06T09:27:53.774Z,101693.19
2018-09-06T09:30:23.425Z,101695.33
2018-09-06T09:32:53.079Z,101689.25
2018-09-06T09:35:22.423Z,101690.81
2018-09-06T09:37:52.154Z,101695.66
2018-09-06T09:40:21.451Z,101689.91
2018-09-06T09:42:50.865Z,101690.17
2018-09-06T09:45:20.314Z,101689.59
2018-09-06T09:47:49.608Z,101681.69
2018-09-06T09:52:47.728Z,101685.41
2018-09-06T09:55:16.998Z,101674.77
2018-09-06T09:57:46.333Z,101675.74
2018-09-06T10:00:15.945Z,101672.25
2018-09-06T10:02:50.384Z,101683.91
2018-09-06T10:05:24.953Z,101677.80
2018-09-06T10:07:56.886Z,101678.31
2018-09-06T10:10:26.585Z,101673.34
2018-09-06T10:12:55.798Z,101667.87
2018-09-06T10:15:25.323Z,101660.63
2018-09-06T10:17:54.535Z,101661.22
2018-09-06T10:20:24.677Z,101666.04
2018-09-06T10:22:54.959Z,101659.02
2018-09-06T10:25:24.056Z,101668.09
2018-09-06T10:27:53.356Z,101664.73
2018-09-06T10:30:22.802Z,101666.97
2018-09-06T10:32:52.238Z,101667.11
2018-09-06T10:35:21.704Z,101659.36
2018-09-06T10:37:51.418Z,101658.52
2018-09-06T10:40:20.778Z,101659.95
2018-09-06T10:42:50.011Z,101545.39
2018-09-06T10:45:19.378Z,101648.72
2018-09-06T10:47:48.713Z,101658.27
2018-09-06T10:50:18.017Z,101653.89
2018-09-06T10:52:47.523Z,101656.64
2018-09-06T10:55:16.935Z,101649.59
2018-09-06T10:57:46.093Z,101646.30
2018-09-06T11:00:15.671Z,101649.28
2018-09-06T11:02:44.931Z,101651.55
2018-09-06T11:05:14.173Z,101648.45
2018-09-06T11:07:43.431Z,101653.16
2018-09-06T11:10:12.786Z,101645.52
2018-09-06T11:12:42.375Z,101646.80
2018-09-06T11:15:11.923Z,101640.94
2018-09-06T11:17:41.233Z,101640.73
2018-09-06T11:20:10.379Z,101641.06
2018-09-06T11:22:40.123Z,101646.30
2018-09-06T11:25:09.175Z,101638.70
2018-09-06T11:27:38.300Z,101638.66
2018-09-06T11:30:07.854Z,101640.92
2018-09-06T11:32:37.057Z,101635.67
2018-09-06T11:35:06.448Z,101634.63
2018-09-06T11:37:36.096Z,101639.16
2018-09-06T11:40:05.491Z,101632.06
2018-09-06T11:42:34.711Z,101631.27
2018-09-06T11:45:04.391Z,101624.66
2018-09-06T11:47:33.842Z,101629.16
2018-09-06T11:50:03.318Z,101630.43
2018-09-06T11:52:33.020Z,101625.05
2018-09-06T11:55:02.608Z,101630.85
2018-09-06T11:57:31.762Z,101621.70
2018-09-06T12:00:01.087Z,101614.84
2018-09-06T12:02:30.347Z,101616.13
2018-09-06T12:04:59.761Z,101615.27
2018-09-06T12:07:29.597Z,101612.82
2018-09-06T12:09:58.827Z,101604.97
2018-09-06T12:12:28.135Z,101608.59
2018-09-06T12:14:57.704Z,101608.92
2018-09-06T12:17:27.014Z,101604.08
2018-09-06T12:19:56.158Z,101602.63
2018-09-06T12:22:25.973Z,101594.58
2018-09-06T12:24:55.459Z,101592.70
2018-09-06T12:27:24.784Z,101589.61
2018-09-06T12:29:54.640Z,101595.25
2018-09-06T12:32:24.036Z,101592.57
2018-09-06T12:34:53.207Z,101595.27
2018-09-06T12:37:22.797Z,101597.44
2018-09-06T12:39:52.193Z,101598.58
2018-09-06T12:42:21.422Z,101589.17
2018-09-06T12:44:57.052Z,101587.45
2018-09-06T12:47:26.320Z,101588.31
2018-09-06T12:49:55.553Z,101588.76
2018-09-06T12:52:25.202Z,101587.16
2018-09-06T12:54:54.897Z,101580.42
2018-09-06T12:57:24.269Z,101579.42
2018-09-06T12:59:54.007Z,101579.63
2018-09-06T13:02:23.386Z,101576.70
2018-09-06T13:04:52.699Z,101562.61
2018-09-06T13:07:22.936Z,101571.59
2018-09-06T13:09:52.435Z,101569.70
2018-09-06T13:12:21.649Z,101560.34
2018-09-06T13:14:51.240Z,101564.75
2018-09-06T13:17:20.809Z,101560.34
2018-09-06T13:19:49.908Z,101531.17
2018-09-06T13:24:48.394Z,101558.31
2018-09-06T13:27:18.221Z,101552.27
2018-09-06T13:29:47.657Z,101551.58
2018-09-06T13:32:17.055Z,101554.53
2018-09-06T13:34:46.452Z,101550.77
2018-09-06T13:37:16.037Z,101548.63
2018-09-06T13:39:45.290Z,101544.06
2018-09-06T13:42:14.527Z,101543.23
2018-09-06T13:44:44.321Z,101541.47
2018-09-06T13:47:13.577Z,101531.61
2018-09-06T13:49:42.678Z,101533.88
2018-09-06T13:52:12.054Z,101535.77
2018-09-06T13:54:41.381Z,101527.16
2018-09-06T13:57:10.868Z,101525.69
2018-09-06T13:59:40.147Z,101521.13
2018-09-06T14:02:09.453Z,101521.41
2018-09-06T14:04:38.568Z,101525.10
2018-09-06T14:07:08.162Z,101518.19
2018-09-06T14:09:37.664Z,101522.20
2018-09-06T14:12:07.757Z,101527.70
2018-09-06T14:14:37.197Z,101517.39
2018-09-06T14:17:10.393Z,101523.00
2018-09-06T14:19:39.649Z,101520.45
2018-09-06T14:22:08.947Z,101520.45
2018-09-06T14:24:38.540Z,101514.83
2018-09-06T14:27:07.923Z,101518.02
2018-09-06T14:29:37.363Z,101507.16
2018-09-06T14:32:06.789Z,101516.67
2018-09-06T14:34:36.524Z,101517.89
2018-09-06T14:37:06.375Z,101517.39
2018-09-06T14:39:35.751Z,101510.52
2018-09-06T14:42:04.934Z,101510.92
2018-09-06T14:44:34.157Z,101514.83
2018-09-06T14:47:03.655Z,101507.45
2018-09-06T14:49:32.989Z,101507.70
2018-09-06T14:52:02.121Z,101508.36
2018-09-06T14:54:31.393Z,101504.21
2018-09-06T14:57:00.716Z,101505.69
2018-09-06T14:59:30.030Z,101497.92
2018-09-06T15:01:59.483Z,101500.45
2018-09-06T15:04:28.897Z,101501.11
2018-09-06T15:06:58.472Z,101505.55
2018-09-06T15:09:27.888Z,101502.20
2018-09-06T15:11:57.144Z,101497.75
2018-09-06T15:14:26.911Z,101502.86
2018-09-06T15:16:56.431Z,101501.13
2018-09-06T15:19:25.767Z,101497.08
2018-09-06T15:21:55.173Z,101496.42
2018-09-06T15:24:24.681Z,101491.44
2018-09-06T15:26:54.079Z,101491.84
2018-09-06T15:29:23.598Z,101491.84
2018-09-06T15:31:53.044Z,101495.44
2018-09-06T15:34:22.762Z,101489.16
2018-09-06T15:36:51.712Z,101491.72
2018-09-06T15:39:21.891Z,101490.76
2018-09-06T15:41:51.166Z,101483.49
2018-09-06T15:44:20.994Z,101486.08
2018-09-06T15:46:50.507Z,101477.16
2018-09-06T15:49:19.857Z,101473.20
2018-09-06T15:51:49.049Z,101478.63
2018-09-06T15:54:18.632Z,101475.87
2018-09-06T15:56:48.002Z,101475.42
2018-09-06T15:59:17.234Z,101471.30
2018-09-06T16:01:46.749Z,101473.18
2018-09-06T16:04:15.961Z,101471.37
2018-09-06T16:06:45.192Z,101467.74
2018-09-06T16:09:15.093Z,101461.58
2018-09-06T16:11:44.718Z,101462.84
2018-09-06T16:14:13.852Z,101458.48
2018-09-06T16:16:43.105Z,101454.84
2018-09-06T16:19:13.361Z,101456.33
2018-09-06T16:21:42.785Z,101453.41
2018-09-06T16:24:13.372Z,101457.14
2018-09-06T16:26:42.958Z,101453.77
2018-09-06T16:29:12.333Z,101458.21
2018-09-06T16:31:41.726Z,101452.16
2018-09-06T16:34:11.192Z,101461.67
2018-09-06T16:36:40.366Z,101456.04
2018-09-06T16:39:10.613Z,101456.42
2018-09-06T16:41:40.611Z,101450.56
2018-09-06T16:44:10.012Z,101445.12
2018-09-06T16:46:39.607Z,101420.16
2018-09-06T16:49:08.842Z,101446.23
2018-09-06T16:51:38.124Z,101442.75
2018-09-06T16:54:07.360Z,101447.77
2018-09-06T16:56:36.857Z,101452.55
2018-09-06T16:59:06.283Z,101453.09
2018-09-06T17:01:35.824Z,101449.99
2018-09-06T17:04:05.174Z,101451.45
2018-09-06T17:06:34.073Z,101451.18
2018-09-06T17:09:03.332Z,101447.28
2018-09-06T17:11:32.819Z,101444.86
2018-09-06T17:14:16.110Z,101448.62
2018-09-06T17:16:45.022Z,101449.42
2018-09-06T17:19:14.264Z,101441.77
2018-09-06T17:24:35.967Z,101441.53
2018-09-06T17:27:05.573Z,101438.93
2018-09-06T17:29:34.975Z,101435.64
2018-09-06T17:32:04.052Z,101436.25
2018-09-06T17:34:33.247Z,101439.69
2018-09-06T17:37:02.286Z,101445.66
2018-09-06T17:39:31.294Z,101434.53
2018-09-06T17:42:00.741Z,101445.05
2018-09-06T17:44:30.060Z,101438.92
2018-09-06T17:46:59.547Z,101440.37
2018-09-06T17:49:28.622Z,101441.67
2018-09-06T17:51:57.644Z,101439.45
2018-09-06T17:54:27.007Z,101434.97
2018-09-06T17:56:56.168Z,101434.09
2018-09-06T17:59:25.632Z,101436.88
2018-09-06T18:01:54.886Z,101428.27
2018-09-06T18:04:24.676Z,101431.47
2018-09-06T18:06:53.741Z,101425.73
2018-09-06T18:09:24.272Z,101415.19
2018-09-06T18:11:54.010Z,101421.04
2018-09-06T18:14:23.535Z,101430.94
2018-09-06T18:16:52.833Z,101428.41
2018-09-06T18:19:22.441Z,101429.60
2018-09-06T18:21:51.590Z,101424.08
2018-09-06T18:24:20.919Z,101431.66
2018-09-06T18:26:50.365Z,101431.25
2018-09-06T18:29:19.702Z,101431.35
2018-09-06T18:31:48.877Z,101436.00
2018-09-06T18:34:18.366Z,101428.61
2018-09-06T18:36:47.521Z,101432.55
2018-09-06T18:39:16.823Z,101436.00
2018-09-06T18:41:46.173Z,101432.88
2018-09-06T18:44:15.114Z,101440.48
2018-09-06T18:46:44.369Z,101436.46
2018-09-06T18:49:14.338Z,101428.96
2018-09-06T18:51:43.774Z,101432.09
2018-09-06T18:54:13.237Z,101431.98
2018-09-06T18:56:42.635Z,101427.66
2018-09-06T18:59:11.952Z,101423.08
2018-09-06T19:02:44.591Z,101428.67
2018-09-06T19:05:13.909Z,101421.97
2018-09-06T19:07:43.232Z,101418.31
2018-09-06T19:10:12.737Z,101419.23
2018-09-06T19:12:41.882Z,101422.81
2018-09-06T19:15:10.993Z,101429.02
2018-09-06T19:17:40.543Z,101427.78
2018-09-06T19:20:09.822Z,101424.68
2018-09-06T19:22:38.759Z,101418.86
2018-09-06T19:25:08.048Z,101419.39
2018-09-06T19:27:37.392Z,101423.40
2018-09-06T19:30:06.701Z,101419.38
2018-09-06T19:32:36.249Z,101424.83
2018-09-06T19:35:06.769Z,101415.78
2018-09-06T19:37:35.905Z,101415.27
2018-09-06T19:40:05.569Z,101414.36
2018-09-06T19:42:34.808Z,101413.66
2018-09-06T19:45:04.143Z,101417.80
2018-09-06T19:47:33.622Z,101417.41
2018-09-06T19:50:02.926Z,101416.30
2018-09-06T19:52:32.344Z,101419.41
2018-09-06T19:55:01.811Z,101416.00
2018-09-06T19:57:30.716Z,101411.11
2018-09-06T20:00:00.196Z,101411.52
2018-09-06T20:02:29.549Z,101411.97
2018-09-06T20:04:58.876Z,101405.36
2018-09-06T20:07:28.265Z,101405.88
2018-09-06T20:09:57.449Z,101404.02
2018-09-06T20:12:27.068Z,101404.11
2018-09-06T20:14:56.335Z,101404.63
2018-09-06T20:17:25.721Z,101406.48
2018-09-06T20:19:55.372Z,101401.66
2018-09-06T20:22:24.691Z,101402.27
2018-09-06T20:24:54.108Z,101410.45
2018-09-06T20:27:23.441Z,101402.05
2018-09-06T20:29:52.270Z,101409.03
2018-09-06T20:32:21.685Z,101405.48
2018-09-06T20:34:51.193Z,101407.03
2018-09-06T20:37:20.269Z,101408.91
2018-09-06T20:39:49.274Z,101412.83
2018-09-06T20:42:18.839Z,101407.48
2018-09-06T20:44:48.093Z,101408.97
2018-09-06T20:47:17.715Z,101411.94
2018-09-06T20:49:46.803Z,101405.50
2018-09-06T20:52:16.220Z,101414.62
2018-09-06T20:54:45.726Z,101410.63
2018-09-06T20:57:14.880Z,101412.86
2018-09-06T20:59:44.217Z,101415.96
2018-09-06T21:02:32.731Z,101418.72
2018-09-06T21:05:01.946Z,101419.38
2018-09-06T21:07:31.590Z,101417.58
2018-09-06T21:10:00.839Z,101422.49
2018-09-06T21:12:30.255Z,101424.00
2018-09-06T21:14:59.723Z,101425.84
2018-09-06T21:17:28.970Z,101422.35
2018-09-06T21:19:58.208Z,101431.18
2018-09-06T21:22:27.822Z,101432.52
2018-09-06T21:24:57.171Z,101432.12
2018-09-06T21:27:26.429Z,101435.27
2018-09-06T21:29:56.037Z,101430.52
2018-09-06T21:32:25.477Z,101436.53
2018-09-06T21:34:54.939Z,101441.36
2018-09-06T21:37:24.213Z,101441.89
2018-09-06T21:39:53.647Z,101448.11
2018-09-06T21:42:23.846Z,101452.19
2018-09-06T21:44:53.191Z,101449.05
2018-09-06T21:47:22.490Z,101446.03
2018-09-06T21:49:51.739Z,101449.52
2018-09-06T21:52:21.128Z,101449.58
2018-09-06T21:54:50.792Z,101454.11
2018-09-06T21:57:20.074Z,101445.71
2018-09-06T21:59:49.821Z,101452.38
2018-09-06T22:02:24.298Z,101449.88
2018-09-06T22:04:54.072Z,101450.97
2018-09-06T22:07:23.482Z,101451.04
2018-09-06T22:09:52.943Z,101453.25
2018-09-06T22:12:22.417Z,101450.72
2018-09-06T22:14:51.985Z,101454.48
2018-09-06T22:17:21.308Z,101451.38
2018-09-06T22:19:50.872Z,101457.39
2018-09-06T22:22:20.138Z,101459.87
2018-09-06T22:24:49.556Z,101450.22
2018-09-06T22:27:18.746Z,101449.97
2018-09-06T22:29:48.079Z,101447.94
2018-09-06T22:32:17.165Z,101449.92
2018-09-06T22:34:46.829Z,101445.62
2018-09-06T22:37:16.003Z,101449.95
2018-09-06T22:39:45.126Z,101448.14
2018-09-06T22:42:14.967Z,101447.39
2018-09-06T22:44:44.174Z,101444.72
2018-09-06T22:47:13.491Z,101444.87
2018-09-06T22:49:42.913Z,101444.29
2018-09-06T22:52:12.180Z,101449.62
2018-09-06T22:54:41.391Z,101451.59
2018-09-06T22:57:10.829Z,101450.94
2018-09-06T22:59:40.241Z,101454.43
2018-09-06T23:02:09.546Z,101448.38
2018-09-06T23:04:39.033Z,101451.23
2018-09-06T23:07:08.432Z,101451.29
2018-09-06T23:09:38.151Z,101453.97
2018-09-06T23:12:07.545Z,101456.17
2018-09-06T23:14:36.888Z,101455.80
2018-09-06T23:17:06.094Z,101452.38
2018-09-06T23:19:35.579Z,101456.59
2018-09-06T23:22:04.919Z,101447.78
2018-09-06T23:24:34.100Z,101451.77
2018-09-06T23:27:03.521Z,101447.90
2018-09-06T23:29:32.858Z,101443.97
2018-09-06T23:32:02.226Z,101446.57
2018-09-06T23:34:36.705Z,101436.48
2018-09-06T23:37:06.835Z,101437.60
2018-09-06T23:39:36.007Z,101436.42
2018-09-06T23:42:06.021Z,101431.88
2018-09-06T23:44:35.411Z,101433.61
2018-09-06T23:47:04.913Z,101440.80
2018-09-06T23:49:34.229Z,101430.55
2018-09-06T23:52:03.389Z,101435.44
2018-09-06T23:54:32.557Z,101430.05
2018-09-06T23:57:01.940Z,101429.28
2018-09-06T23:59:31.075Z,101431.11
